EJA111 KDAL-KSAT
Flight info
| Callsign | EJA111 |
|---|---|
| Flight time | 0h 43m |
| Altitude | 36000 |
| Route | CURLO6 WINDU QERVO3 |
| Aircraft | C750/M-SBDE3FGHRWXY/S |
Departure
| Time | 2026-04-21 23:14 |
|---|---|
| Airport | Dallas Love Field (KDAL) |
Arrival
| Time | 2026-04-21 23:57 |
|---|---|
| Airport | San Antonio International Airport (KSAT) |
| Time | Latitude | Longitude | Altitude | Speed | Heading |
|---|---|---|---|---|---|
| 2026-04-21 23:07 | 32.84983 | -96.84455 | 480 ft | 0 kts | 140° |
| 2026-04-21 23:09 | 32.84982 | -96.84453 | 480 ft | 2 kts | 140° |
| 2026-04-21 23:10 | 32.84966 | -96.84458 | 479 ft | 2 kts | 230° |
| 2026-04-21 23:10 | 32.84952 | -96.84497 | 480 ft | 6 kts | 239° |
| 2026-04-21 23:10 | 32.84920 | -96.84559 | 478 ft | 9 kts | 286° |
| 2026-04-21 23:10 | 32.84985 | -96.84639 | 481 ft | 19 kts | 315° |
| 2026-04-21 23:11 | 32.85107 | -96.84781 | 481 ft | 29 kts | 316° |
| 2026-04-21 23:11 | 32.85249 | -96.84944 | 479 ft | 28 kts | 315° |
| 2026-04-21 23:11 | 32.85384 | -96.85100 | 481 ft | 26 kts | 316° |
| 2026-04-21 23:11 | 32.85518 | -96.85244 | 481 ft | 25 kts | 316° |
| 2026-04-21 23:12 | 32.85642 | -96.85388 | 480 ft | 23 kts | 315° |
| 2026-04-21 23:12 | 32.85734 | -96.85497 | 480 ft | 15 kts | 315° |
| 2026-04-21 23:12 | 32.85775 | -96.85546 | 480 ft | 7 kts | 314° |
| 2026-04-21 23:12 | 32.85770 | -96.85606 | 478 ft | 10 kts | 237° |
| 2026-04-21 23:13 | 32.85708 | -96.85647 | 479 ft | 9 kts | 183° |
| 2026-04-21 23:13 | 32.85652 | -96.85592 | 483 ft | 27 kts | 136° |
| 2026-04-21 23:13 | 32.85237 | -96.85106 | 490 ft | 130 kts | 135° |
| 2026-04-21 23:13 | 32.84552 | -96.84306 | 944 ft | 149 kts | 135° |
| 2026-04-21 23:14 | 32.83717 | -96.83391 | 1425 ft | 178 kts | 139° |
| 2026-04-21 23:14 | 32.82721 | -96.82339 | 1911 ft | 207 kts | 139° |
| 2026-04-21 23:14 | 32.81650 | -96.81188 | 3042 ft | 203 kts | 142° |
| 2026-04-21 23:14 | 32.80581 | -96.80043 | 4075 ft | 216 kts | 142° |
| 2026-04-21 23:15 | 32.79428 | -96.78810 | 4983 ft | 227 kts | 142° |
| 2026-04-21 23:15 | 32.78222 | -96.77512 | 5774 ft | 238 kts | 141° |
| 2026-04-21 23:15 | 32.76962 | -96.76158 | 6452 ft | 260 kts | 141° |
| 2026-04-21 23:15 | 32.75513 | -96.74541 | 6374 ft | 309 kts | 136° |
| 2026-04-21 23:16 | 32.74084 | -96.72816 | 6783 ft | 282 kts | 139° |
| 2026-04-21 23:16 | 32.72551 | -96.71336 | 7243 ft | 284 kts | 153° |
| 2026-04-21 23:16 | 32.70737 | -96.70677 | 8485 ft | 276 kts | 175° |
| 2026-04-21 23:16 | 32.68828 | -96.70936 | 9464 ft | 281 kts | 201° |
| 2026-04-21 23:17 | 32.67044 | -96.71874 | 10423 ft | 285 kts | 208° |
| 2026-04-21 23:17 | 32.65181 | -96.72923 | 10783 ft | 309 kts | 208° |
| 2026-04-21 23:17 | 32.63151 | -96.74045 | 10991 ft | 335 kts | 207° |
| 2026-04-21 23:17 | 32.61034 | -96.75367 | 11325 ft | 348 kts | 217° |
| 2026-04-21 23:18 | 32.59141 | -96.77144 | 12140 ft | 348 kts | 221° |
| 2026-04-21 23:18 | 32.57246 | -96.78954 | 12873 ft | 353 kts | 220° |
| 2026-04-21 23:18 | 32.55305 | -96.80772 | 13605 ft | 358 kts | 220° |
| 2026-04-21 23:18 | 32.53366 | -96.82585 | 14283 ft | 362 kts | 220° |
| 2026-04-21 23:19 | 32.51385 | -96.84451 | 14947 ft | 366 kts | 221° |
| 2026-04-21 23:19 | 32.49382 | -96.86340 | 15570 ft | 370 kts | 221° |
| 2026-04-21 23:19 | 32.47353 | -96.88245 | 16249 ft | 374 kts | 221° |
| 2026-04-21 23:19 | 32.45306 | -96.90164 | 16960 ft | 377 kts | 221° |
| 2026-04-21 23:20 | 32.43236 | -96.92107 | 17675 ft | 381 kts | 221° |
| 2026-04-21 23:20 | 32.41149 | -96.94066 | 18390 ft | 385 kts | 221° |
| 2026-04-21 23:20 | 32.39036 | -96.96046 | 19053 ft | 389 kts | 221° |
| 2026-04-21 23:20 | 32.36907 | -96.98040 | 19739 ft | 392 kts | 221° |
| 2026-04-21 23:21 | 32.34787 | -97.00024 | 20427 ft | 396 kts | 221° |
| 2026-04-21 23:21 | 32.32619 | -97.02052 | 21112 ft | 399 kts | 221° |
| 2026-04-21 23:21 | 32.30314 | -97.03926 | 21732 ft | 408 kts | 212° |
| 2026-04-21 23:21 | 32.27687 | -97.05252 | 22444 ft | 415 kts | 201° |
| 2026-04-21 23:22 | 32.24838 | -97.05963 | 23108 ft | 424 kts | 190° |
| 2026-04-21 23:22 | 32.21871 | -97.06116 | 23767 ft | 429 kts | 185° |
| 2026-04-21 23:22 | 32.18872 | -97.06196 | 24318 ft | 433 kts | 185° |
| 2026-04-21 23:22 | 32.15847 | -97.06294 | 24884 ft | 436 kts | 185° |
| 2026-04-21 23:23 | 32.12842 | -97.06396 | 25404 ft | 440 kts | 186° |
| 2026-04-21 23:23 | 32.09773 | -97.06491 | 25947 ft | 443 kts | 186° |
| 2026-04-21 23:23 | 32.06679 | -97.06582 | 26491 ft | 447 kts | 186° |
| 2026-04-21 23:23 | 32.03562 | -97.06680 | 27031 ft | 450 kts | 186° |
| 2026-04-21 23:24 | 32.00420 | -97.06782 | 27568 ft | 454 kts | 187° |
| 2026-04-21 23:24 | 31.97251 | -97.06881 | 28100 ft | 457 kts | 187° |
| 2026-04-21 23:24 | 31.94060 | -97.06979 | 28631 ft | 461 kts | 187° |
| 2026-04-21 23:24 | 31.90840 | -97.07079 | 29169 ft | 464 kts | 187° |
| 2026-04-21 23:25 | 31.87596 | -97.07181 | 29701 ft | 468 kts | 188° |
| 2026-04-21 23:25 | 31.84326 | -97.07283 | 30231 ft | 472 kts | 188° |
| 2026-04-21 23:25 | 31.81076 | -97.07384 | 30693 ft | 475 kts | 188° |
| 2026-04-21 23:25 | 31.77759 | -97.07486 | 31179 ft | 478 kts | 188° |
| 2026-04-21 23:26 | 31.74447 | -97.07587 | 31887 ft | 474 kts | 188° |
| 2026-04-21 23:26 | 31.71162 | -97.07686 | 32628 ft | 471 kts | 188° |
| 2026-04-21 23:26 | 31.67899 | -97.07790 | 33353 ft | 468 kts | 189° |
| 2026-04-21 23:26 | 31.64650 | -97.07892 | 34083 ft | 466 kts | 189° |
| 2026-04-21 23:27 | 31.61419 | -97.07992 | 34718 ft | 464 kts | 189° |
| 2026-04-21 23:27 | 31.58198 | -97.08092 | 35292 ft | 461 kts | 189° |
| 2026-04-21 23:27 | 31.55019 | -97.08229 | 35923 ft | 455 kts | 192° |
| 2026-04-21 23:27 | 31.51935 | -97.08791 | 36179 ft | 454 kts | 200° |
| 2026-04-21 23:28 | 31.45839 | -97.11107 | 36191 ft | 471 kts | 205° |
| 2026-04-21 23:28 | 31.39592 | -97.13525 | 36195 ft | 474 kts | 205° |
| 2026-04-21 23:29 | 31.33303 | -97.16008 | 36193 ft | 480 kts | 205° |
| 2026-04-21 23:29 | 31.26933 | -97.18491 | 36180 ft | 485 kts | 205° |
| 2026-04-21 23:30 | 31.20554 | -97.20986 | 36183 ft | 489 kts | 205° |
| 2026-04-21 23:30 | 31.14082 | -97.23510 | 36190 ft | 492 kts | 205° |
| 2026-04-21 23:31 | 31.07562 | -97.26051 | 36188 ft | 496 kts | 205° |
| 2026-04-21 23:31 | 31.01015 | -97.28597 | 36170 ft | 487 kts | 205° |
| 2026-04-21 23:32 | 30.97857 | -97.29811 | 35515 ft | 474 kts | 205° |
| 2026-04-21 23:32 | 30.94791 | -97.31008 | 34749 ft | 467 kts | 205° |
| 2026-04-21 23:32 | 30.91734 | -97.32204 | 33965 ft | 461 kts | 205° |
| 2026-04-21 23:32 | 30.88710 | -97.33375 | 33121 ft | 455 kts | 205° |
| 2026-04-21 23:33 | 30.85725 | -97.34527 | 32310 ft | 449 kts | 205° |
| 2026-04-21 23:33 | 30.82779 | -97.35668 | 31522 ft | 443 kts | 205° |
| 2026-04-21 23:33 | 30.79871 | -97.36797 | 30759 ft | 438 kts | 205° |
| 2026-04-21 23:33 | 30.76996 | -97.37910 | 29968 ft | 433 kts | 205° |
| 2026-04-21 23:34 | 30.74147 | -97.39011 | 29080 ft | 429 kts | 204° |
| 2026-04-21 23:34 | 30.71332 | -97.40098 | 28241 ft | 424 kts | 204° |
| 2026-04-21 23:34 | 30.68582 | -97.41161 | 27438 ft | 420 kts | 204° |
| 2026-04-21 23:34 | 30.65818 | -97.42227 | 26646 ft | 417 kts | 204° |
| 2026-04-21 23:35 | 30.63082 | -97.43282 | 25876 ft | 413 kts | 204° |
| 2026-04-21 23:35 | 30.60369 | -97.44329 | 25127 ft | 409 kts | 204° |
| 2026-04-21 23:35 | 30.57688 | -97.45360 | 24662 ft | 399 kts | 203° |
| 2026-04-21 23:35 | 30.55099 | -97.46352 | 24305 ft | 386 kts | 203° |
| 2026-04-21 23:36 | 30.52586 | -97.47320 | 23933 ft | 376 kts | 204° |
| 2026-04-21 23:36 | 30.50134 | -97.48266 | 23530 ft | 367 kts | 204° |
| 2026-04-21 23:36 | 30.47736 | -97.49188 | 23155 ft | 359 kts | 204° |
| 2026-04-21 23:36 | 30.45427 | -97.50074 | 22793 ft | 351 kts | 204° |
| 2026-04-21 23:37 | 30.43134 | -97.50955 | 22453 ft | 344 kts | 204° |
| 2026-04-21 23:37 | 30.40880 | -97.51821 | 22116 ft | 338 kts | 204° |
| 2026-04-21 23:37 | 30.38664 | -97.52673 | 21785 ft | 333 kts | 204° |
| 2026-04-21 23:37 | 30.36620 | -97.53807 | 21437 ft | 321 kts | 216° |
| 2026-04-21 23:38 | 30.34730 | -97.55150 | 21147 ft | 317 kts | 216° |
| 2026-04-21 23:38 | 30.32852 | -97.56458 | 20842 ft | 314 kts | 216° |
| 2026-04-21 23:38 | 30.30984 | -97.57738 | 20536 ft | 311 kts | 216° |
| 2026-04-21 23:38 | 30.29119 | -97.59027 | 20228 ft | 320 kts | 216° |
| 2026-04-21 23:39 | 30.27147 | -97.60403 | 19913 ft | 342 kts | 215° |
| 2026-04-21 23:39 | 30.25070 | -97.61841 | 19575 ft | 362 kts | 214° |
| 2026-04-21 23:39 | 30.22850 | -97.63368 | 19209 ft | 380 kts | 214° |
| 2026-04-21 23:39 | 30.20533 | -97.64965 | 18818 ft | 395 kts | 214° |
| 2026-04-21 23:40 | 30.18136 | -97.66622 | 18410 ft | 407 kts | 214° |
| 2026-04-21 23:40 | 30.15675 | -97.68319 | 17962 ft | 415 kts | 214° |
| 2026-04-21 23:40 | 30.13183 | -97.70032 | 17546 ft | 419 kts | 214° |
| 2026-04-21 23:40 | 30.10675 | -97.71759 | 17128 ft | 420 kts | 214° |
| 2026-04-21 23:41 | 30.08163 | -97.73493 | 16710 ft | 421 kts | 214° |
| 2026-04-21 23:41 | 30.05683 | -97.75201 | 16300 ft | 420 kts | 214° |
| 2026-04-21 23:41 | 30.03212 | -97.76900 | 15896 ft | 404 kts | 214° |
| 2026-04-21 23:41 | 30.00854 | -97.78519 | 15512 ft | 386 kts | 214° |
| 2026-04-21 23:42 | 29.98597 | -97.80072 | 15141 ft | 370 kts | 214° |
| 2026-04-21 23:42 | 29.96422 | -97.81567 | 14785 ft | 358 kts | 214° |
| 2026-04-21 23:42 | 29.94318 | -97.83011 | 14439 ft | 347 kts | 215° |
| 2026-04-21 23:42 | 29.92274 | -97.84415 | 14104 ft | 337 kts | 215° |
| 2026-04-21 23:43 | 29.90449 | -97.86013 | 13712 ft | 324 kts | 230° |
| 2026-04-21 23:43 | 29.89181 | -97.88086 | 13409 ft | 311 kts | 245° |
| 2026-04-21 23:43 | 29.88393 | -97.90365 | 13129 ft | 303 kts | 252° |
| 2026-04-21 23:43 | 29.87671 | -97.92593 | 12838 ft | 299 kts | 251° |
| 2026-04-21 23:44 | 29.86932 | -97.94828 | 12545 ft | 297 kts | 251° |
| 2026-04-21 23:44 | 29.86197 | -97.97042 | 12256 ft | 296 kts | 251° |
| 2026-04-21 23:44 | 29.85455 | -97.99252 | 11963 ft | 296 kts | 250° |
| 2026-04-21 23:44 | 29.84714 | -98.01463 | 11672 ft | 296 kts | 250° |
| 2026-04-21 23:45 | 29.83973 | -98.03681 | 11358 ft | 297 kts | 250° |
| 2026-04-21 23:45 | 29.82502 | -98.08102 | 10763 ft | 290 kts | 250° |
| 2026-04-21 23:45 | 29.81788 | -98.10247 | 10484 ft | 283 kts | 250° |
| 2026-04-21 23:46 | 29.81102 | -98.12302 | 10209 ft | 275 kts | 250° |
| 2026-04-21 23:46 | 29.80424 | -98.14336 | 9932 ft | 269 kts | 250° |
| 2026-04-21 23:46 | 29.79761 | -98.16326 | 9651 ft | 263 kts | 250° |
| 2026-04-21 23:46 | 29.79114 | -98.18272 | 9394 ft | 258 kts | 250° |
| 2026-04-21 23:47 | 29.78479 | -98.20182 | 9137 ft | 255 kts | 250° |
| 2026-04-21 23:47 | 29.77846 | -98.22084 | 8898 ft | 254 kts | 249° |
| 2026-04-21 23:47 | 29.77212 | -98.23985 | 8646 ft | 254 kts | 250° |
| 2026-04-21 23:47 | 29.76579 | -98.25882 | 8395 ft | 254 kts | 249° |
| 2026-04-21 23:48 | 29.75948 | -98.27778 | 8145 ft | 254 kts | 249° |
| 2026-04-21 23:48 | 29.75325 | -98.29645 | 7898 ft | 253 kts | 248° |
| 2026-04-21 23:48 | 29.74692 | -98.31535 | 7650 ft | 253 kts | 248° |
| 2026-04-21 23:48 | 29.74061 | -98.33422 | 7400 ft | 253 kts | 248° |
| 2026-04-21 23:49 | 29.73429 | -98.35310 | 7154 ft | 253 kts | 247° |
| 2026-04-21 23:49 | 29.72798 | -98.37204 | 6900 ft | 254 kts | 247° |
| 2026-04-21 23:49 | 29.72185 | -98.39112 | 6660 ft | 255 kts | 247° |
| 2026-04-21 23:49 | 29.71571 | -98.41020 | 6393 ft | 255 kts | 247° |
| 2026-04-21 23:50 | 29.71000 | -98.42949 | 6097 ft | 256 kts | 253° |
| 2026-04-21 23:50 | 29.70960 | -98.44961 | 5941 ft | 248 kts | 270° |
| 2026-04-21 23:50 | 29.71053 | -98.46871 | 5985 ft | 234 kts | 269° |
| 2026-04-21 23:50 | 29.71093 | -98.48731 | 5995 ft | 233 kts | 268° |
| 2026-04-21 23:51 | 29.71142 | -98.50606 | 5995 ft | 235 kts | 269° |
| 2026-04-21 23:51 | 29.71021 | -98.52467 | 5692 ft | 236 kts | 248° |
| 2026-04-21 23:51 | 29.70186 | -98.54055 | 5428 ft | 231 kts | 230° |
| 2026-04-21 23:51 | 29.69249 | -98.55553 | 5163 ft | 231 kts | 233° |
| 2026-04-21 23:52 | 29.68427 | -98.57116 | 4862 ft | 226 kts | 237° |
| 2026-04-21 23:52 | 29.67674 | -98.58678 | 4556 ft | 221 kts | 237° |
| 2026-04-21 23:52 | 29.66772 | -98.59978 | 4218 ft | 205 kts | 214° |
| 2026-04-21 23:52 | 29.65534 | -98.60604 | 3998 ft | 188 kts | 190° |
| 2026-04-21 23:53 | 29.64261 | -98.60563 | 3740 ft | 183 kts | 166° |
| 2026-04-21 23:53 | 29.63132 | -98.59915 | 3482 ft | 183 kts | 143° |
| 2026-04-21 23:53 | 29.62268 | -98.58854 | 3227 ft | 181 kts | 132° |
| 2026-04-21 23:53 | 29.61436 | -98.57780 | 3000 ft | 178 kts | 132° |
| 2026-04-21 23:54 | 29.60640 | -98.56760 | 3003 ft | 165 kts | 133° |
| 2026-04-21 23:54 | 29.59902 | -98.55810 | 3004 ft | 152 kts | 132° |
| 2026-04-21 23:54 | 29.59232 | -98.54953 | 2615 ft | 144 kts | 133° |
| 2026-04-21 23:54 | 29.58554 | -98.54117 | 2213 ft | 139 kts | 130° |
| 2026-04-21 23:55 | 29.57931 | -98.53311 | 1955 ft | 134 kts | 132° |
| 2026-04-21 23:55 | 29.57294 | -98.52522 | 1612 ft | 131 kts | 128° |
| 2026-04-21 23:55 | 29.56694 | -98.51776 | 1496 ft | 126 kts | 128° |
| 2026-04-21 23:55 | 29.56122 | -98.50992 | 1355 ft | 130 kts | 127° |
| 2026-04-21 23:56 | 29.55542 | -98.50199 | 1243 ft | 131 kts | 129° |
| 2026-04-21 23:56 | 29.54943 | -98.49426 | 1062 ft | 128 kts | 126° |
| 2026-04-21 23:56 | 29.54368 | -98.48669 | 900 ft | 124 kts | 128° |
| 2026-04-21 23:56 | 29.53817 | -98.47958 | 795 ft | 111 kts | 130° |
| 2026-04-21 23:57 | 29.53452 | -98.47495 | 794 ft | 51 kts | 132° |
| 2026-04-21 23:57 | 29.53299 | -98.47297 | 794 ft | 21 kts | 131° |
| 2026-04-21 23:57 | 29.53213 | -98.47187 | 794 ft | 16 kts | 131° |
| 2026-04-21 23:57 | 29.53141 | -98.47093 | 794 ft | 16 kts | 131° |
| 2026-04-21 23:58 | 29.53117 | -98.47008 | 790 ft | 11 kts | 55° |
| 2026-04-21 23:58 | 29.53187 | -98.46936 | 795 ft | 16 kts | 41° |
| 2026-04-21 23:58 | 29.53279 | -98.46844 | 795 ft | 16 kts | 39° |
| 2026-04-21 23:58 | 29.53355 | -98.46767 | 795 ft | 13 kts | 43° |
| 2026-04-21 23:59 | 29.53410 | -98.46707 | 795 ft | 9 kts | 42° |
| 2026-04-21 23:59 | 29.53449 | -98.46704 | 795 ft | 6 kts | 336° |
| 2026-04-21 23:59 | 29.53479 | -98.46739 | 795 ft | 3 kts | 329° |
| 2026-04-21 23:59 | 29.53502 | -98.46735 | 795 ft | 4 kts | 15° |
| 2026-04-22 00:00 | 29.53524 | -98.46734 | 795 ft | 2 kts | 328° |
| 2026-04-22 00:00 | 29.53525 | -98.46755 | 795 ft | 2 kts | 269° |
| 2026-04-22 00:00 | 29.53525 | -98.46759 | 795 ft | 0 kts | 269° |